createdAt,value
2023-02-23T00:00:35.596Z,100763.24
2023-02-23T00:01:42.041Z,100764.11
2023-02-23T00:02:44.804Z,100777.97
2023-02-23T00:03:51.453Z,100771.91
2023-02-23T00:04:56.719Z,100774.49
2023-02-23T00:06:04.625Z,100778.86
2023-02-23T00:07:08.742Z,100772.80
2023-02-23T00:08:12.209Z,100771.93
2023-02-23T00:09:29.121Z,100778.83
2023-02-23T00:10:33.509Z,100777.13
2023-02-23T00:11:37.072Z,100781.44
2023-02-23T00:12:41.308Z,100778.84
2023-02-23T00:13:46.925Z,100773.64
2023-02-23T00:14:49.574Z,100790.07
2023-02-23T00:15:53.723Z,100773.63
2023-02-23T00:16:58.041Z,100788.35
2023-02-23T00:18:00.375Z,100790.94
2023-02-23T00:19:06.752Z,100785.76
2023-02-23T00:20:13.106Z,100790.06
2023-02-23T00:21:17.281Z,100790.08
2023-02-23T00:22:20.781Z,100794.39
2023-02-23T00:23:24.594Z,100792.67
2023-02-23T00:24:26.960Z,100777.98
2023-02-23T00:25:31.609Z,100786.63
2023-02-23T00:26:34.746Z,100783.14
2023-02-23T00:27:41.143Z,100793.50
2023-02-23T00:28:44.170Z,100796.97
2023-02-23T00:29:51.845Z,100793.52
2023-02-23T00:30:58.988Z,100796.13
2023-02-23T00:32:01.799Z,100795.25
2023-02-23T00:33:05.843Z,100797.84
2023-02-23T00:34:10.634Z,100794.36
2023-02-23T00:35:17.957Z,100797.81
2023-02-23T00:36:21.278Z,100801.28
2023-02-23T00:37:23.573Z,100801.30
2023-02-23T00:38:32.592Z,100796.95
2023-02-23T00:39:36.060Z,100803.89
2023-02-23T00:40:42.160Z,100800.41
2023-02-23T00:41:46.890Z,100802.11
2023-02-23T00:42:54.793Z,100809.90
2023-02-23T00:44:00.046Z,100806.43
2023-02-23T00:45:06.751Z,100796.06
2023-02-23T00:46:10.145Z,100809.89
2023-02-23T00:47:13.635Z,100799.53
2023-02-23T00:48:16.731Z,100796.89
2023-02-23T00:49:20.362Z,100800.38
2023-02-23T00:50:23.945Z,100806.42
2023-02-23T00:51:29.161Z,100802.11
2023-02-23T00:52:34.680Z,100796.94
2023-02-23T00:53:41.431Z,100793.47
2023-02-23T00:54:45.485Z,100798.65
2023-02-23T00:55:50.873Z,100802.98
2023-02-23T00:56:57.345Z,100799.53
2023-02-23T00:58:00.456Z,100801.27
2023-02-23T00:59:03.557Z,100808.16
2023-02-23T01:00:19.474Z,100810.73
2023-02-23T01:01:23.361Z,100805.55
2023-02-23T01:02:29.963Z,100808.12
2023-02-23T01:03:33.208Z,100814.17
2023-02-23T01:04:37.062Z,100811.59
2023-02-23T01:05:40.204Z,100808.99
2023-02-23T01:06:42.577Z,100808.15
2023-02-23T01:07:46.963Z,100809.02
2023-02-23T01:08:51.029Z,100810.73
2023-02-23T01:09:54.113Z,100814.17
2023-02-23T01:11:01.069Z,100807.27
2023-02-23T01:12:05.600Z,100813.31
2023-02-23T01:13:08.954Z,100818.47
2023-02-23T01:14:12.292Z,100814.99
2023-02-23T01:15:18.326Z,100817.62
2023-02-23T01:16:23.633Z,100815.87
2023-02-23T01:17:26.853Z,100813.27
2023-02-23T01:18:30.005Z,100824.50
2023-02-23T01:19:34.629Z,100821.91
2023-02-23T01:20:42.498Z,100819.30
2023-02-23T01:21:47.192Z,100821.91
2023-02-23T01:22:52.170Z,100821.06
2023-02-23T01:23:55.743Z,100822.80
2023-02-23T01:24:59.000Z,100827.11
2023-02-23T01:26:02.334Z,100824.53
2023-02-23T01:27:07.538Z,100821.94
2023-02-23T01:28:13.673Z,100824.52
2023-02-23T01:29:17.965Z,100831.43
2023-02-23T01:30:23.003Z,100828.81
2023-02-23T01:31:28.066Z,100827.08
2023-02-23T01:32:31.399Z,100828.77
2023-02-23T01:33:34.604Z,100829.69
2023-02-23T01:34:37.654Z,100827.09
2023-02-23T01:35:41.479Z,100825.35
2023-02-23T01:36:45.039Z,100833.98
2023-02-23T01:37:54.941Z,100834.00
2023-02-23T01:39:00.476Z,100838.32
2023-02-23T01:40:07.944Z,100837.45
2023-02-23T01:41:11.173Z,100840.04
2023-02-23T01:42:16.474Z,100844.36
2023-02-23T01:43:23.855Z,100847.81
2023-02-23T01:44:33.188Z,100847.84
2023-02-23T01:45:37.840Z,100840.05
2023-02-23T01:46:43.380Z,100842.66
2023-02-23T01:47:47.639Z,100846.98
2023-02-23T01:48:52.245Z,100840.08
2023-02-23T01:49:55.238Z,100847.81
2023-02-23T01:51:03.291Z,100852.08
2023-02-23T01:52:12.533Z,100848.65
2023-02-23T01:53:16.396Z,100846.04
2023-02-23T01:54:23.701Z,100842.55
2023-02-23T01:55:28.874Z,100847.72
2023-02-23T01:56:38.657Z,100851.16
2023-02-23T01:57:42.388Z,100847.69
2023-02-23T01:58:46.484Z,100850.27
2023-02-23T01:59:51.347Z,100850.25
2023-02-23T02:00:56.305Z,100850.27
2023-02-23T02:01:59.042Z,100853.75
2023-02-23T02:03:06.951Z,100852.94
2023-02-23T02:04:11.983Z,100855.53
2023-02-23T02:05:20.093Z,100855.55
2023-02-23T02:06:30.641Z,100852.11
2023-02-23T02:07:35.598Z,100858.17
2023-02-23T02:08:40.430Z,100859.89
2023-02-23T02:09:46.615Z,100859.02
2023-02-23T02:10:56.541Z,100859.02
2023-02-23T02:12:01.649Z,100863.38
2023-02-23T02:13:07.636Z,100861.63
2023-02-23T02:14:15.686Z,100857.28
2023-02-23T02:15:24.046Z,100857.31
2023-02-23T02:16:30.755Z,100860.76
2023-02-23T02:17:36.233Z,100866.78
2023-02-23T02:18:45.989Z,100863.28
2023-02-23T02:20:08.614Z,100865.92
2023-02-23T02:21:26.402Z,100868.51
2023-02-23T02:22:40.459Z,100877.08
2023-02-23T02:24:01.484Z,100875.38
2023-02-23T02:25:08.458Z,100874.48
2023-02-23T02:26:26.760Z,100878.77
2023-02-23T02:27:42.204Z,100872.74
2023-02-23T02:28:47.238Z,100875.34
2023-02-23T02:29:56.358Z,100885.70
2023-02-23T02:31:10.604Z,100884.87
2023-02-23T02:32:16.917Z,100881.43
2023-02-23T02:33:37.656Z,100876.23
2023-02-23T02:34:43.061Z,100884.02
2023-02-23T02:36:05.737Z,100880.55
2023-02-23T02:37:22.412Z,100878.81
2023-02-23T02:38:44.813Z,100893.45
2023-02-23T02:40:18.273Z,100890.83
2023-02-23T02:41:28.205Z,100891.63
2023-02-23T02:42:40.532Z,100893.38
2023-02-23T02:43:52.777Z,100893.30
2023-02-23T02:45:09.546Z,100896.78
2023-02-23T02:46:23.351Z,100898.55
2023-02-23T02:47:30.366Z,100897.72
2023-02-23T02:48:35.663Z,100896.76
2023-02-23T02:49:40.689Z,100895.92
2023-02-23T02:50:56.994Z,100902.89
2023-02-23T02:52:17.275Z,100897.69
2023-02-23T02:53:25.594Z,100901.95
2023-02-23T02:54:30.169Z,100902.81
2023-02-23T02:55:36.628Z,100903.67
2023-02-23T02:56:42.232Z,100907.14
2023-02-23T02:57:47.155Z,100899.37
2023-02-23T02:58:51.600Z,100909.70
2023-02-23T03:00:12.137Z,100903.66
2023-02-23T03:01:34.402Z,100908.88
2023-02-23T03:02:57.108Z,100901.97
2023-02-23T03:04:20.114Z,100908.83
2023-02-23T03:05:44.657Z,100903.66
2023-02-23T03:07:10.412Z,100903.66
2023-02-23T03:08:37.166Z,100907.98
2023-02-23T03:10:01.871Z,100911.39
2023-02-23T03:11:27.449Z,100917.39
2023-02-23T03:13:00.374Z,100916.58
2023-02-23T03:14:23.463Z,100918.33
2023-02-23T03:15:46.822Z,100917.44
2023-02-23T03:17:24.854Z,100919.99
2023-02-23T03:18:49.997Z,100920.91
2023-02-23T03:20:18.907Z,100924.38
2023-02-23T03:21:41.695Z,100920.93
2023-02-23T03:23:17.258Z,100925.26
2023-02-23T03:24:45.514Z,100923.51
2023-02-23T03:26:11.624Z,100928.58
2023-02-23T03:27:51.437Z,100932.01
2023-02-23T03:29:22.051Z,100937.27
2023-02-23T03:30:48.443Z,100933.76
2023-02-23T03:32:14.986Z,100933.82
2023-02-23T03:33:37.652Z,100936.44
2023-02-23T03:35:01.555Z,100940.70
2023-02-23T03:36:25.837Z,100943.18
2023-02-23T03:37:53.422Z,100938.86
2023-02-23T03:39:16.871Z,100938.04
2023-02-23T03:40:42.328Z,100940.62
2023-02-23T03:42:06.994Z,100941.51
2023-02-23T03:43:30.504Z,100939.70
2023-02-23T03:44:53.741Z,100939.74
2023-02-23T03:46:15.764Z,100944.03
2023-02-23T03:47:39.465Z,100942.28
2023-02-23T03:49:03.378Z,100940.55
2023-02-23T03:50:29.758Z,100942.27
2023-02-23T03:51:52.195Z,100943.15
2023-02-23T03:53:17.121Z,100940.51
2023-02-23T03:54:46.981Z,100938.80
2023-02-23T03:56:09.402Z,100945.67
2023-02-23T03:57:32.881Z,100949.09
2023-02-23T03:58:56.086Z,100952.59
2023-02-23T04:00:19.203Z,100948.67
2023-02-23T04:01:43.372Z,100953.98
2023-02-23T04:03:06.281Z,100956.61
2023-02-23T04:04:29.543Z,100948.84
2023-02-23T04:05:53.022Z,100950.60
2023-02-23T04:07:17.065Z,100947.14
2023-02-23T04:08:41.389Z,100952.31
2023-02-23T04:10:02.220Z,100949.70
2023-02-23T04:11:30.564Z,100954.86
2023-02-23T04:12:53.619Z,100947.03
2023-02-23T04:13:58.488Z,100947.92
2023-02-23T04:15:03.335Z,100955.73
2023-02-23T04:16:08.175Z,100953.07
2023-02-23T04:17:14.274Z,100963.95
2023-02-23T04:18:20.482Z,100961.23
2023-02-23T04:19:26.325Z,100962.84
2023-02-23T04:20:28.737Z,100962.87
2023-02-23T04:21:31.852Z,100961.09
2023-02-23T04:22:36.792Z,100956.73
2023-02-23T04:23:42.127Z,100959.34
2023-02-23T04:24:46.687Z,100959.36
2023-02-23T04:25:51.831Z,100962.75
2023-02-23T04:26:54.789Z,100960.95
2023-02-23T04:28:00.124Z,100959.22
2023-02-23T04:29:02.506Z,100958.38
2023-02-23T04:30:06.989Z,100961.88
2023-02-23T04:31:10.065Z,100960.16
2023-02-23T04:32:15.811Z,100961.82
2023-02-23T04:33:20.020Z,100961.78
2023-02-23T04:34:22.258Z,100960.95
2023-02-23T04:35:26.288Z,100961.80
2023-02-23T04:36:29.555Z,100965.26
2023-02-23T04:37:32.732Z,100965.28
2023-02-23T04:38:38.145Z,100973.04
2023-02-23T04:39:42.459Z,100969.63
2023-02-23T04:40:45.798Z,100977.41
2023-02-23T04:41:51.967Z,100973.02
2023-02-23T04:42:55.828Z,100971.44
2023-02-23T04:44:00.228Z,100969.72
2023-02-23T04:45:04.471Z,100973.13
2023-02-23T04:46:07.802Z,100970.58
2023-02-23T04:47:11.511Z,100973.17
2023-02-23T04:48:14.616Z,100977.42
2023-02-23T04:49:17.792Z,100974.76
2023-02-23T04:50:21.275Z,100988.59
2023-02-23T04:51:24.536Z,100980.78
2023-02-23T04:52:27.976Z,100982.41
2023-02-23T04:53:30.149Z,100978.17
2023-02-23T04:54:32.551Z,100989.42
2023-02-23T04:55:35.821Z,100979.97
2023-02-23T04:56:41.763Z,100987.73
2023-02-23T04:57:45.892Z,100992.11
2023-02-23T04:58:48.968Z,100987.75
2023-02-23T04:59:52.207Z,100989.45
2023-02-23T05:00:56.630Z,100992.09
2023-02-23T05:01:59.895Z,100986.78
2023-02-23T05:03:02.940Z,100987.80
2023-02-23T05:04:06.160Z,100987.89
2023-02-23T05:05:09.927Z,100987.81
2023-02-23T05:06:14.443Z,100991.30
2023-02-23T05:07:18.531Z,100987.84
2023-02-23T05:08:21.200Z,100994.74
2023-02-23T05:09:25.328Z,100993.12
2023-02-23T05:10:28.777Z,100994.01
2023-02-23T05:11:33.048Z,100998.35
2023-02-23T05:12:36.413Z,101000.03
2023-02-23T05:13:40.821Z,101006.08
2023-02-23T05:14:44.198Z,101007.73
2023-02-23T05:15:50.507Z,100999.97
2023-02-23T05:16:54.101Z,101005.19
2023-02-23T05:17:57.232Z,101003.45
2023-02-23T05:18:59.541Z,101012.14
2023-02-23T05:20:03.821Z,101012.18
2023-02-23T05:21:06.970Z,101012.23
2023-02-23T05:22:12.481Z,101013.92
2023-02-23T05:23:14.766Z,101012.22
2023-02-23T05:24:18.409Z,101014.77
2023-02-23T05:25:21.608Z,101015.66
2023-02-23T05:26:24.947Z,101024.29
2023-02-23T05:27:28.488Z,101026.95
2023-02-23T05:28:32.769Z,101021.05
2023-02-23T05:29:36.865Z,101022.77
2023-02-23T05:30:39.186Z,101027.95
2023-02-23T05:31:42.859Z,101032.39
2023-02-23T05:32:46.492Z,101032.70
2023-02-23T05:33:49.713Z,101031.95
2023-02-23T05:34:52.893Z,101033.76
2023-02-23T05:35:56.301Z,101037.18
2023-02-23T05:36:58.498Z,101040.52
2023-02-23T05:38:01.748Z,101042.15
2023-02-23T05:39:04.549Z,101045.62
2023-02-23T05:40:09.338Z,101041.27
2023-02-23T05:41:14.528Z,101046.45
2023-02-23T05:42:17.774Z,101043.22
2023-02-23T05:43:20.567Z,101043.33
2023-02-23T05:44:23.951Z,101051.24
2023-02-23T05:45:27.150Z,101052.20
2023-02-23T05:46:30.509Z,101062.66
2023-02-23T05:47:36.779Z,101058.30
2023-02-23T05:48:40.098Z,101058.30
2023-02-23T05:49:43.611Z,101061.69
2023-02-23T05:50:46.801Z,101067.73
2023-02-23T05:51:50.661Z,101059.16
2023-02-23T05:52:53.565Z,101067.94
2023-02-23T05:53:59.769Z,101074.05
2023-02-23T05:55:06.431Z,101077.53
2023-02-23T05:56:11.089Z,101078.38
2023-02-23T05:57:14.263Z,101087.93
2023-02-23T05:58:17.776Z,101086.20
2023-02-23T05:59:21.768Z,101093.98
2023-02-23T06:00:26.170Z,101089.61
2023-02-23T06:01:30.441Z,101093.06
2023-02-23T06:02:33.763Z,101093.96
2023-02-23T06:03:38.870Z,101100.88
2023-02-23T06:04:42.493Z,101099.97
2023-02-23T06:07:08.684Z,101098.16
2023-02-23T06:08:13.091Z,101099.91
2023-02-23T06:09:18.209Z,101100.86
2023-02-23T06:10:21.278Z,101099.20
2023-02-23T06:11:24.815Z,101104.39
2023-02-23T06:12:28.390Z,101103.52
2023-02-23T06:13:33.210Z,101107.80
2023-02-23T06:14:36.981Z,101106.91
2023-02-23T06:15:40.819Z,101102.55
2023-02-23T06:16:45.491Z,101108.60
2023-02-23T06:17:55.030Z,101106.83
2023-02-23T06:18:58.831Z,101114.57
2023-02-23T06:20:06.824Z,101106.82
2023-02-23T06:21:10.857Z,101109.46
2023-02-23T06:22:14.155Z,101115.55
2023-02-23T06:23:19.540Z,101107.75
2023-02-23T06:24:24.295Z,101113.88
2023-02-23T06:25:28.010Z,101119.96
2023-02-23T06:26:30.582Z,101112.19
2023-02-23T06:27:33.661Z,101117.39
2023-02-23T06:28:38.109Z,101124.31
2023-02-23T06:29:42.034Z,101122.52
2023-02-23T06:30:47.439Z,101135.59
2023-02-23T06:31:51.241Z,101127.80
2023-02-23T06:32:53.990Z,101128.64
2023-02-23T06:33:58.122Z,101124.30
2023-02-23T06:35:02.585Z,101125.20
2023-02-23T06:36:06.459Z,101130.39
2023-02-23T06:37:10.140Z,101136.47
2023-02-23T06:38:13.725Z,101139.05
2023-02-23T06:39:16.393Z,101137.33
2023-02-23T06:40:20.116Z,101130.33
2023-02-23T06:41:22.777Z,101138.87
2023-02-23T06:42:26.101Z,101135.39
2023-02-23T06:43:30.311Z,101137.75
2023-02-23T06:44:36.659Z,101140.38
2023-02-23T06:45:39.919Z,101143.93
2023-02-23T06:46:43.494Z,101145.48
2023-02-23T06:47:47.519Z,101153.41
2023-02-23T06:48:50.996Z,101142.28
2023-02-23T06:49:54.785Z,101150.20
2023-02-23T06:50:59.984Z,101150.25
2023-02-23T06:52:04.302Z,101147.53
2023-02-23T06:53:10.420Z,101144.02
2023-02-23T06:54:14.341Z,101147.48
2023-02-23T06:55:18.264Z,101148.42
2023-02-23T06:56:21.250Z,101154.50
2023-02-23T06:57:25.300Z,101154.55
2023-02-23T06:58:28.013Z,101147.48
2023-02-23T06:59:31.335Z,101141.93
2023-02-23T07:00:34.437Z,101144.72
2023-02-23T07:01:38.093Z,101159.33
2023-02-23T07:02:42.361Z,101147.92
2023-02-23T07:03:45.575Z,101158.42
2023-02-23T07:04:54.600Z,101158.61
2023-02-23T07:06:00.298Z,101162.02
2023-02-23T07:07:04.053Z,101157.95
2023-02-23T07:08:07.433Z,101157.69
2023-02-23T07:09:11.969Z,101162.52
2023-02-23T07:10:14.954Z,101165.89
2023-02-23T07:11:21.090Z,101170.17
2023-02-23T07:12:26.549Z,101166.90
2023-02-23T07:13:32.262Z,101173.03
2023-02-23T07:14:37.646Z,101173.92
2023-02-23T07:15:42.722Z,101178.79
2023-02-23T07:16:46.037Z,101177.69
2023-02-23T07:17:49.197Z,101177.89
2023-02-23T07:18:51.977Z,101185.08
2023-02-23T07:19:56.114Z,101184.14
2023-02-23T07:20:58.679Z,101186.05
2023-02-23T07:22:02.097Z,101187.62
2023-02-23T07:23:04.428Z,101197.27
2023-02-23T07:24:10.376Z,101196.21
2023-02-23T07:25:13.218Z,101205.83
2023-02-23T07:26:18.077Z,101213.91
2023-02-23T07:27:22.628Z,101215.57
2023-02-23T07:28:29.048Z,101214.70
2023-02-23T07:29:34.844Z,101225.67
2023-02-23T07:30:38.219Z,101226.37
2023-02-23T07:31:41.943Z,101233.50
2023-02-23T07:32:46.395Z,101243.30
2023-02-23T07:33:58.894Z,101254.92
2023-02-23T07:35:03.555Z,101256.55
2023-02-23T07:36:06.837Z,101256.98
2023-02-23T07:37:10.648Z,101252.17
2023-02-23T07:38:14.075Z,101268.72
2023-02-23T07:39:16.344Z,101268.80
2023-02-23T07:40:20.153Z,101259.45
2023-02-23T07:41:22.848Z,101279.81
2023-02-23T07:42:26.523Z,101266.23
2023-02-23T07:43:30.035Z,101274.55
2023-02-23T07:44:33.280Z,101281.34
2023-02-23T07:45:35.701Z,101287.70
2023-02-23T07:46:40.237Z,101282.98
2023-02-23T07:47:45.066Z,101282.42
2023-02-23T07:48:48.510Z,101282.36
2023-02-23T07:49:51.657Z,101279.89
2023-02-23T07:50:55.306Z,101283.55
2023-02-23T07:51:59.671Z,101289.00
2023-02-23T07:53:03.559Z,101285.95
2023-02-23T07:54:08.945Z,101286.84
2023-02-23T07:55:12.060Z,101294.02
2023-02-23T07:56:18.454Z,101288.30
2023-02-23T07:57:22.459Z,101280.39
2023-02-23T07:58:27.051Z,101292.28
2023-02-23T07:59:30.337Z,101281.53
2023-02-23T08:00:35.463Z,101275.73
2023-02-23T08:01:38.923Z,101287.16
2023-02-23T08:02:41.678Z,101285.17
2023-02-23T08:03:46.757Z,101290.77
2023-02-23T08:04:50.394Z,101286.24
2023-02-23T08:05:53.033Z,101295.60
2023-02-23T08:06:55.608Z,101289.83
2023-02-23T08:08:00.272Z,101295.61
2023-02-23T08:09:04.795Z,101291.13
2023-02-23T08:10:08.515Z,101300.99
2023-02-23T08:11:12.460Z,101300.44
2023-02-23T08:12:16.108Z,101302.63
2023-02-23T08:13:19.374Z,101303.73
2023-02-23T08:14:24.624Z,101301.55
2023-02-23T08:15:28.347Z,101290.56
2023-02-23T08:16:34.089Z,101298.42
2023-02-23T08:17:38.911Z,101293.08
2023-02-23T08:18:42.329Z,101299.00
2023-02-23T08:19:45.462Z,101300.81
2023-02-23T08:20:49.101Z,101301.30
2023-02-23T08:21:51.768Z,101290.09
2023-02-23T08:22:56.945Z,101293.73
2023-02-23T08:24:01.611Z,101298.36
2023-02-23T08:25:07.460Z,101294.64
2023-02-23T08:26:12.272Z,101295.96
2023-02-23T08:27:15.780Z,101291.98
2023-02-23T08:28:19.643Z,101292.31
2023-02-23T08:29:21.964Z,101286.97
2023-02-23T08:30:25.614Z,101292.58
2023-02-23T08:31:29.124Z,101292.52
2023-02-23T08:32:35.581Z,101294.89
2023-02-23T08:33:40.673Z,101293.36
2023-02-23T08:34:47.655Z,101294.13
2023-02-23T08:35:51.016Z,101288.97
2023-02-23T08:36:57.300Z,101296.28
2023-02-23T08:38:00.766Z,101294.97
2023-02-23T08:39:08.136Z,101299.64
2023-02-23T08:40:15.841Z,101297.38
2023-02-23T08:41:21.606Z,101295.35
2023-02-23T08:42:25.231Z,101294.89
2023-02-23T08:43:28.930Z,101300.17
2023-02-23T08:44:32.541Z,101290.42
2023-02-23T08:45:35.417Z,101291.00
2023-02-23T08:46:37.762Z,101292.47
2023-02-23T08:47:41.495Z,101295.08
2023-02-23T08:48:45.935Z,101286.55
2023-02-23T08:49:50.376Z,101288.03
2023-02-23T08:51:00.345Z,101301.74
2023-02-23T08:52:02.713Z,101286.89
2023-02-23T08:53:05.056Z,101295.94
2023-02-23T08:54:12.751Z,101297.34
2023-02-23T08:55:18.352Z,101293.32
2023-02-23T08:56:24.227Z,101293.23
2023-02-23T08:57:29.668Z,101291.14
2023-02-23T08:58:34.745Z,101295.86
2023-02-23T08:59:39.777Z,101295.22
2023-02-23T09:00:43.285Z,101293.34
2023-02-23T09:01:47.020Z,101283.43
2023-02-23T09:02:49.342Z,101276.67
2023-02-23T09:03:52.966Z,101287.33
2023-02-23T09:04:56.814Z,101290.36
2023-02-23T09:06:02.166Z,101295.95
2023-02-23T09:07:26.819Z,101299.47
2023-02-23T09:08:29.428Z,101301.20
2023-02-23T09:09:34.977Z,101284.28
2023-02-23T09:10:39.656Z,101288.34
2023-02-23T09:11:43.285Z,101287.80
2023-02-23T09:12:46.801Z,101294.17
2023-02-23T09:13:50.403Z,101278.66
2023-02-23T09:14:54.661Z,101279.09
2023-02-23T09:15:58.058Z,101280.09
2023-02-23T09:17:01.446Z,101286.80
2023-02-23T09:18:04.334Z,101290.10
2023-02-23T09:19:07.730Z,101283.05
2023-02-23T09:20:13.757Z,101282.41
2023-02-23T09:21:25.807Z,101277.78
2023-02-23T09:22:30.461Z,101284.67
2023-02-23T09:23:36.074Z,101279.93
2023-02-23T09:24:39.563Z,101288.09
2023-02-23T09:25:45.478Z,101293.09
2023-02-23T09:26:48.543Z,101292.30
2023-02-23T09:27:53.303Z,101282.88
2023-02-23T09:28:57.551Z,101281.72
2023-02-23T09:30:00.950Z,101284.70
2023-02-23T09:31:07.623Z,101284.84
2023-02-23T09:32:12.202Z,101280.30
2023-02-23T09:33:16.470Z,101279.31
2023-02-23T09:34:20.505Z,101281.95
2023-02-23T09:35:26.417Z,101283.59
2023-02-23T09:36:30.667Z,101291.18
2023-02-23T09:37:34.039Z,101293.91
2023-02-23T09:38:36.301Z,101287.61
2023-02-23T09:39:39.941Z,101280.63
2023-02-23T09:40:50.270Z,101274.59
2023-02-23T09:41:58.712Z,101275.06
2023-02-23T09:43:18.624Z,101284.75
2023-02-23T09:44:27.042Z,101284.80
2023-02-23T09:45:34.309Z,101277.16
2023-02-23T09:46:40.032Z,101285.50
2023-02-23T09:47:45.073Z,101276.81
2023-02-23T09:48:51.715Z,101275.71
2023-02-23T09:49:57.393Z,101283.34
2023-02-23T09:51:00.427Z,101288.44
2023-02-23T09:52:03.921Z,101286.09
2023-02-23T09:53:13.351Z,101283.97
2023-02-23T09:54:18.405Z,101281.20
2023-02-23T09:55:22.145Z,101287.23
2023-02-23T09:56:27.954Z,101284.04
2023-02-23T09:57:40.541Z,101285.34
2023-02-23T09:58:44.042Z,101283.59
2023-02-23T09:59:47.760Z,101293.21
2023-02-23T10:00:54.086Z,101286.23
2023-02-23T10:02:19.280Z,101290.78
2023-02-23T10:03:36.284Z,101280.31
2023-02-23T10:04:51.510Z,101282.71
2023-02-23T10:06:01.969Z,101281.98
2023-02-23T10:07:08.763Z,101266.56
2023-02-23T10:08:30.313Z,101271.76
2023-02-23T10:09:52.107Z,101275.94
2023-02-23T10:10:58.211Z,101258.09
2023-02-23T10:12:07.410Z,101271.25
2023-02-23T10:13:20.265Z,101272.92
2023-02-23T10:14:40.272Z,101268.56
2023-02-23T10:15:56.322Z,101281.83
2023-02-23T10:17:17.186Z,101270.72
2023-02-23T10:18:45.796Z,101273.09
2023-02-23T10:19:45.890Z,101262.59
2023-02-23T10:20:57.063Z,101270.89
2023-02-23T10:22:02.311Z,101261.91
2023-02-23T10:23:07.471Z,101260.13
2023-02-23T10:24:13.704Z,101255.84
2023-02-23T10:25:19.093Z,101251.07
2023-02-23T10:26:24.469Z,101259.52
2023-02-23T10:27:29.566Z,101258.45
2023-02-23T10:28:36.707Z,101261.23
2023-02-23T10:29:41.045Z,101259.75
2023-02-23T10:30:44.752Z,101261.88
2023-02-23T10:31:50.144Z,101254.64
2023-02-23T10:32:56.052Z,101249.80
2023-02-23T10:34:00.280Z,101255.84
2023-02-23T10:35:06.926Z,101254.13
2023-02-23T10:36:14.217Z,101257.74
2023-02-23T10:37:18.200Z,101260.75
2023-02-23T10:38:20.775Z,101268.36
2023-02-23T10:39:24.393Z,101263.74
2023-02-23T10:40:32.605Z,101262.94
2023-02-23T10:41:37.774Z,101261.02
2023-02-23T10:42:41.075Z,101262.90
2023-02-23T10:43:44.669Z,101265.38
2023-02-23T10:44:46.931Z,101256.44
2023-02-23T10:45:51.678Z,101246.12
2023-02-23T10:47:05.369Z,101250.25
2023-02-23T10:48:10.015Z,101258.09
2023-02-23T10:49:14.623Z,101259.41
2023-02-23T10:50:19.217Z,101261.37
2023-02-23T10:51:24.358Z,101254.06
2023-02-23T10:52:41.614Z,101251.30
2023-02-23T10:53:40.876Z,101250.55
2023-02-23T10:54:48.348Z,101250.49
2023-02-23T10:56:02.517Z,101248.70
2023-02-23T10:57:07.790Z,101241.18
2023-02-23T10:58:18.816Z,101248.17
2023-02-23T10:59:22.138Z,101251.95
2023-02-23T11:00:31.415Z,101251.01
2023-02-23T11:02:01.847Z,101244.98
2023-02-23T11:02:49.545Z,101245.84
2023-02-23T11:04:04.342Z,101240.44
2023-02-23T11:04:59.373Z,101240.50
2023-02-23T11:06:02.343Z,101239.72
2023-02-23T11:07:23.408Z,101243.12
2023-02-23T11:08:35.902Z,101237.59
2023-02-23T11:09:47.117Z,101237.77
2023-02-23T11:10:58.684Z,101240.16
2023-02-23T11:12:08.124Z,101239.28
2023-02-23T11:13:24.137Z,101239.34
2023-02-23T11:14:28.857Z,101240.27
2023-02-23T11:15:49.444Z,101246.31
2023-02-23T11:16:39.774Z,101234.95
2023-02-23T11:17:42.883Z,101244.61
2023-02-23T11:19:02.908Z,101239.91
2023-02-23T11:20:10.993Z,101234.41
2023-02-23T11:21:16.281Z,101237.99
2023-02-23T11:22:25.220Z,101229.24
2023-02-23T11:23:34.260Z,101232.40
2023-02-23T11:24:40.365Z,101233.33
2023-02-23T11:25:47.480Z,101227.16
2023-02-23T11:26:51.671Z,101231.55
2023-02-23T11:27:56.896Z,101237.58
2023-02-23T11:29:03.629Z,101234.62
2023-02-23T11:30:06.767Z,101230.20
2023-02-23T11:31:13.340Z,101229.17
2023-02-23T11:32:31.227Z,101229.43
2023-02-23T11:33:36.606Z,101235.02
2023-02-23T11:34:44.103Z,101234.53
2023-02-23T11:35:47.416Z,101232.80
2023-02-23T11:37:05.754Z,101231.31
2023-02-23T11:38:10.899Z,101235.39
2023-02-23T11:39:18.884Z,101230.73
2023-02-23T11:40:27.727Z,101234.15
2023-02-23T11:41:32.961Z,101230.56
2023-02-23T11:42:37.978Z,101225.25
2023-02-23T11:43:43.256Z,101223.59
2023-02-23T11:44:48.892Z,101229.84
2023-02-23T11:45:55.325Z,101224.63
2023-02-23T11:46:59.535Z,101223.84
2023-02-23T11:48:04.999Z,101226.77
2023-02-23T11:49:09.502Z,101220.34
2023-02-23T11:50:23.399Z,101230.63
2023-02-23T11:51:29.462Z,101226.21
2023-02-23T11:52:34.691Z,101227.80
2023-02-23T11:53:40.801Z,101224.23
2023-02-23T11:54:48.392Z,101233.95
2023-02-23T11:55:54.631Z,101225.45
2023-02-23T11:56:58.636Z,101230.61
2023-02-23T11:58:09.577Z,101228.93
2023-02-23T11:59:20.217Z,101219.27
2023-02-23T12:00:26.319Z,101224.52
2023-02-23T12:01:36.680Z,101223.70
2023-02-23T12:02:48.679Z,101222.79
2023-02-23T12:03:56.551Z,101224.58
2023-02-23T12:05:10.709Z,101218.35
2023-02-23T12:06:17.307Z,101229.82
2023-02-23T12:07:23.785Z,101232.48
2023-02-23T12:08:30.535Z,101230.03
2023-02-23T12:09:36.121Z,101230.95
2023-02-23T12:10:44.127Z,101224.09
2023-02-23T12:11:50.271Z,101222.39
2023-02-23T12:12:54.765Z,101219.88
2023-02-23T12:14:05.048Z,101220.41
2023-02-23T12:15:13.426Z,101222.05
2023-02-23T12:16:31.440Z,101216.77
2023-02-23T12:17:37.182Z,101218.61
2023-02-23T12:18:46.139Z,101223.15
2023-02-23T12:19:52.453Z,101218.59
2023-02-23T12:20:57.845Z,101224.73
2023-02-23T12:22:07.084Z,101221.05
2023-02-23T12:23:12.482Z,101214.97
2023-02-23T12:24:17.029Z,101218.61
2023-02-23T12:25:23.469Z,101214.36
2023-02-23T12:26:28.307Z,101217.72
2023-02-23T12:27:47.391Z,101209.85
2023-02-23T12:28:52.654Z,101208.23
2023-02-23T12:30:14.943Z,101206.23
2023-02-23T12:31:41.785Z,101212.39
2023-02-23T12:32:56.236Z,101219.20
2023-02-23T12:34:02.822Z,101209.66
2023-02-23T12:35:16.602Z,101212.84
2023-02-23T12:36:40.801Z,101206.05
2023-02-23T12:37:44.934Z,101204.50
2023-02-23T12:38:51.808Z,101201.15
2023-02-23T12:40:03.017Z,101202.98
2023-02-23T12:41:13.770Z,101204.54
2023-02-23T12:42:19.804Z,101203.55
2023-02-23T12:43:31.041Z,101204.38
2023-02-23T12:44:54.146Z,101206.85
2023-02-23T12:46:01.386Z,101207.92
2023-02-23T12:47:17.001Z,101200.93
2023-02-23T12:48:31.253Z,101201.68
2023-02-23T12:49:42.292Z,101203.28
2023-02-23T12:50:53.013Z,101198.63
2023-02-23T12:51:58.277Z,101190.95